Ruffin, NC (27326)

12:45 AM EDT on March 27, 2017 (GMT -0400)
Draper-Eden | | Change Station

Elev 0 ft 36.51 °N, 79.69 °W | Updated 6 seconds ago

Overcast
Overcast
59.2 °F
Feels Like 59.2 °F
N
0.0
Wind Variable Wind from SW
Gusts 1.8 mph

Today
High -- | Low -- °F
--% Chance of Precip.
Yesterday
High -- | Low -- °F
Precip. -- in
Pressure 30.11 in
Visibility 10.0 miles
Clouds Scattered Clouds 6000 ft
Overcast 8000 ft
Dew Point 56 °F
Humidity 89%
Rainfall 0.00 in
Snow Depth Not available.
7:11 AM 7:36 PM
Waning Crescent, 1% visible
METAR KDAN 270353Z AUTO 10003KT 10SM SCT060 OVC080 15/15 A3013 RMK AO2 RAB27E36 SLP195 P0000 T01500150
Pressure 30.11 in
Visibility 10.0 miles
Clouds Scattered Clouds 6000 ft
Overcast 8000 ft
Dew Point 56 °F
Humidity 89%
Rainfall 0.00 in
Snow Depth Not available.
7:11 AM 7:36 PM
Waning Crescent, 1% visible
METAR KDAN 270353Z AUTO 10003KT 10SM SCT060 OVC080 15/15 A3013 RMK AO2 RAB27E36 SLP195 P0000 T01500150

Get Severe Weather Alerts

Thanks for signing up!

Be on the lookout for a verification email in your inbox.

You'll start receiving the daily forecast at 8 AM.

×

10-Day Weather Forecast

Almanac

Astronomy

Mar. 27, 2017 Rise Set
Actual Time
Civil Twilight
Nautical Twilight
Astronomical Twilight
Moon
Length of Visible Light
Length of Day
Tomorrow will be .
, % of the Moon is Illuminated

Today's Extremes

State Highs State Lows

Community

WunderPhotos

Upload Photos

1,962,540 photos uploaded!

WunderBlog® & News

Nearby

Air Quality

  Air Quality AQ Index Pollutant
Not available.

Snow Depth

Station Depth Elevation

Earthquake Activity

City Distance Mag. Time & Date
Minimum magnitude displayed is 2.5.

Earthquake Activity

City Distance Mag. Time & Date
Minimum magnitude displayed is 2.5.

Coastal Water Temperatures

Place Temperature

Stations

Nearby Weather Stations

Station Location Temp. Windchill Dew Point Humidity Wind Precip. Elev Updated Type
                   

Watches & Warnings

There are currently no watches in effect.